LSGGTFFF

Guest
Details From LSGG - Geneva
To TFFF - Le Lamentin
Flight Number -
Tags Generated
Created
Modified
Stats Distance 3,829 nm / 7,092 km
Max Altitude 0 ft / 0 m
Waypoints 5
Social Downloads 3
Likes 0
Share VATSIM

Download

Looking for another format? Having issues loading an existing format? Contact us
Advertisement - Login to hide

Notes

Generated

Route

LSGG BL408 RODIL FOF TFFF

ID Type Via Altitude Latitude Longitude Leg Dist Tot Dist Heading (true) Name
O LSGG APT - 0 ft / 0 m 46.23482˚ 6.09953˚ - 0 nm - -
BL408 FIX - 0 ft / 0 m 45.75281˚ 1.07922˚ 211 nm 211 nm 264° / 260° -
RODIL FIX - 0 ft / 0 m 38.07889˚ -27.60667˚ 1353 nm 1564 nm 260° / 241° -
FOF NDB - 0 ft / 0 m 14.58908˚ -61.00128˚ 2263 nm 3828 nm 241° / 225° MARTINIQUE NDB
O TFFF APT - 0 ft / 0 m 14.58843˚ -61.01831˚ 0 nm 3829 nm 268° / 268° -

Altitude Profile

Advertisement - Login to hide

Weather


0- 5 10 15 20 25 30 35+ Temperature / ° C

Clouds and Precipitation
Forecast for 2018-05-27 12:00 UTC. Updated an hour ago

Ground ~20,000 ft ~40,000 ft Winds

LSGG

Details ICAO LSGG (GVA)
Name Geneva
Region Switzerland
Timezone Europe/Zurich (UTC+2.0)
Stats Elevation 1,410 ft / 430 m (AMSL)
Location 46.237755° 6.106173°
Runways 2
Magnetic Variation 1.792° E

METAR

LSGG 271220Z 03008KT 350V060 CAVOK 23/14 Q1017 NOSIG

Decode

TAF

TAF LSGG 271125Z 2712/2818 05007KT CAVOK TX24/2715Z TN14/2805Z TX24/2815Z PROB30 TEMPO 2715/2721 VRB15G25KT 4500 TSRA SCT040CB SCT100 PROB40 TEMPO 2806/2812 SHRA

Decode

Departure Runways

ID Width Length Bearing (true) Bearing (mag) Surface Threshold Offset Overrun Length
05 180 ft / 55 m 12,796 ft / 3,900 m 45.43° 43.64° Concrete 1,079 ft / 329 m 66 ft / 20 m
05L 98 ft / 30 m 2,701 ft / 823 m 45.44° 43.65° Grass 610 ft / 186 m 0 ft / 0 m
23 180 ft / 55 m 12,796 ft / 3,900 m 225.45° 223.66° Concrete 0 ft / 0 m 66 ft / 20 m
23R 98 ft / 30 m 2,701 ft / 823 m 225.45° 223.66° Grass 997 ft / 304 m 0 ft / 0 m

TFFF

Details ICAO TFFF (FDF)
Name Martinique/Aime Cesaire Intl
Region France (Guadeloupe, Martinique, Saint Barthélemy, Saint Martin)
Timezone America/Martinique (UTC-4.0)
Stats Elevation 16 ft / 5 m (AMSL)
Location 14.591032° -61.003173°
Runways 1
Magnetic Variation 15.072° W

METAR

TFFF 271230Z AUTO 13010KT 9999 FEW026 SCT043 29/23 Q1016 NOSIG

Decode

TAF

TAF TFFF 271100Z 2712/2812 12010KT 9999 SCT025 PROB30 TEMPO 2716/2812 4000 SHRA SCT018TCU

Decode

Destination Runways

ID Width Length Bearing (true) Bearing (mag) Surface Threshold Offset Overrun Length
09 148 ft / 45 m 9,852 ft / 3,003 m 79.93° 95.00° Asphalt 0 ft / 0 m 0 ft / 0 m
27 148 ft / 45 m 9,852 ft / 3,003 m 259.94° 275.01° Asphalt 820 ft / 250 m 948 ft / 289 m

Approach Navaids

Runway Type Ident Frequency Range Bearing (true) Bearing (mag) Slope Elevation
09 Localiser FF 109.90 MHz 18 nm / 33 km 79.90° 94.98° - 16 ft / 5 m (AMSL)
09 Glidescope FF 109.90 MHz 10 nm / 19 km 79.93° 95.00° 3.00° 16 ft / 5 m (AMSL)

Popular Alternatives